Time;durP1;ratioP1;P1;durP2;ratioP2;P2;SDS_P1;SDS_P2;PMS_P1;PMS_P2;Temp;Humidity;BMP_temperature;BMP_pressure;BME280_temperature;BME280_humidity;BME280_pressure;Samples;Min_cycle;Max_cycle;Signal;HPM_P1;HPM_P2
2022/02/13 00:01:11;;;;;;;102.17;48.05;;;;;;;-3.19;62.23;96065.45;1526678;92;21042;-47
2022/02/13 00:03:37;;;;;;;119.62;52.20;;;;;;;-3.22;62.64;96063.40;1526724;92;22094;-48
2022/02/13 00:06:04;;;;;;;56.10;29.00;;;;;;;-3.21;62.58;96060.94;1528818;92;21151;-48
2022/02/13 00:08:31;;;;;;;59.03;30.68;;;;;;;-3.24;62.66;96058.91;1494106;93;21188;-47
2022/02/13 00:10:58;;;;;;;62.10;32.65;;;;;;;-3.30;62.60;96062.92;1525755;92;21146;-47
2022/02/13 00:13:25;;;;;;;56.63;29.95;;;;;;;-3.43;63.03;96061.26;1512244;92;21057;-46
2022/02/13 00:15:51;;;;;;;72.15;34.90;;;;;;;-3.57;62.88;96058.02;1512637;93;21626;-47
2022/02/13 00:18:19;;;;;;;98.25;48.35;;;;;;;-3.65;63.17;96069.39;1511858;92;21034;-47
2022/02/13 00:20:46;;;;;;;115.92;53.45;;;;;;;-3.85;63.17;96062.07;1529253;92;21084;-48
2022/02/13 00:23:13;;;;;;;148.25;65.37;;;;;;;-3.98;63.40;96070.59;1527174;92;21625;-48
2022/02/13 00:25:42;;;;;;;132.82;58.55;;;;;;;-4.16;63.38;96064.25;1512373;92;21104;-48
2022/02/13 00:28:11;;;;;;;139.88;65.57;;;;;;;-4.35;63.62;96061.16;1511638;93;20991;-48
2022/02/13 00:30:37;;;;;;;142.28;62.25;;;;;;;-4.50;63.93;96058.98;1513756;92;21042;-48
2022/02/13 00:33:04;;;;;;;118.15;53.65;;;;;;;-4.65;64.21;96054.92;1527880;92;21798;-48
2022/02/13 00:35:32;;;;;;;112.45;50.85;;;;;;;-4.75;64.70;96057.93;1530643;92;21110;-47
2022/02/13 00:37:59;;;;;;;126.95;53.70;;;;;;;-4.70;65.42;96048.94;1509729;93;21099;-48
2022/02/13 00:40:26;;;;;;;109.80;50.08;;;;;;;-4.63;65.27;96051.94;1513435;93;21494;-48
2022/02/13 00:42:52;;;;;;;114.65;50.43;;;;;;;-4.69;65.38;96049.97;1526687;92;21011;-48
2022/02/13 00:45:19;;;;;;;100.38;48.25;;;;;;;-4.63;65.82;96046.00;1512844;93;21167;-49
2022/02/13 00:47:46;;;;;;;121.13;50.65;;;;;;;-4.49;65.81;96044.45;1512886;92;21107;-48
2022/02/13 00:50:13;;;;;;;121.53;53.28;;;;;;;-4.34;65.89;96052.80;1527845;92;21035;-47
2022/02/13 00:52:39;;;;;;;113.20;49.00;;;;;;;-4.21;65.39;96040.27;1512283;92;21482;-47
2022/02/13 00:55:07;;;;;;;121.17;52.88;;;;;;;-4.25;64.95;96035.31;1511514;93;21102;-48
2022/02/13 00:57:34;;;;;;;115.80;51.02;;;;;;;-4.29;65.33;96035.70;1526610;92;21146;-47
2022/02/13 01:00:01;;;;;;;105.95;52.43;;;;;;;-4.23;65.04;96029.83;1527223;92;21064;-48
2022/02/13 01:02:27;;;;;;;107.72;51.02;;;;;;;-4.25;64.89;96028.59;1527777;92;21559;-47
2022/02/13 01:04:54;;;;;;;104.50;50.70;;;;;;;-4.24;64.95;96028.25;1527608;92;21272;-48
2022/02/13 01:07:23;;;;;;;90.20;42.73;;;;;;;-4.28;64.90;96026.56;1511590;93;21167;-48
2022/02/13 01:09:50;;;;;;;65.52;34.83;;;;;;;-4.30;65.12;96026.06;1494666;92;21853;-47
2022/02/13 01:12:16;;;;;;;79.42;36.95;;;;;;;-4.34;64.96;96020.57;1528475;92;21595;-48
2022/02/13 01:14:44;;;;;;;76.30;39.13;;;;;;;-4.39;65.00;96014.58;1511845;93;21168;-46
2022/02/13 01:17:12;;;;;;;79.97;38.38;;;;;;;-4.46;65.07;96011.05;1528496;92;21034;-47
2022/02/13 01:19:40;;;;;;;78.50;39.35;;;;;;;-4.47;65.33;96004.64;1511566;93;21065;-48
2022/02/13 01:22:07;;;;;;;87.45;40.70;;;;;;;-4.42;65.30;96001.23;1511589;92;21241;-47
2022/02/13 01:24:35;;;;;;;89.87;42.62;;;;;;;-4.39;65.01;96000.59;1511235;92;21030;-48
2022/02/13 01:27:02;;;;;;;105.87;47.35;;;;;;;-4.44;64.86;96002.11;1527566;92;21041;-47
2022/02/13 01:29:29;;;;;;;129.57;54.55;;;;;;;-4.44;64.97;95995.97;1526497;92;21544;-48
2022/02/13 01:31:56;;;;;;;123.87;53.28;;;;;;;-4.46;64.88;95984.77;1529812;92;21237;-48
2022/02/13 01:34:22;;;;;;;82.70;39.88;;;;;;;-4.42;65.04;95985.69;1526704;92;21178;-47
2022/02/13 01:36:49;;;;;;;76.95;38.70;;;;;;;-4.33;64.76;95984.55;1526990;92;21483;-48
2022/02/13 01:39:16;;;;;;;80.42;39.88;;;;;;;-4.35;64.43;95982.74;1529893;92;21035;-47
2022/02/13 01:41:48;;;;;;;71.62;36.93;;;;;;;-4.39;64.75;95978.33;1526659;92;21301;-47
2022/02/13 01:44:25;;;;;;;85.57;41.10;;;;;;;-4.35;64.46;95973.34;1528450;92;21171;-48
2022/02/13 01:46:54;;;;;;;100.02;47.35;;;;;;;-4.34;64.26;95971.43;1527766;92;21220;-49
2022/02/13 01:49:21;;;;;;;114.20;52.25;;;;;;;-4.31;63.88;95968.09;1528317;92;21517;-48
2022/02/13 01:51:48;;;;;;;119.25;52.38;;;;;;;-4.31;63.87;95964.06;1512114;92;21042;-48
2022/02/13 01:54:14;;;;;;;72.05;36.15;;;;;;;-4.25;64.13;95965.47;1527020;92;21567;-48
2022/02/13 01:56:41;;;;;;;51.08;25.72;;;;;;;-4.11;63.56;95966.02;1528097;92;21032;-46
2022/02/13 01:59:08;;;;;;;42.75;23.20;;;;;;;-4.26;62.95;95959.88;1529180;92;21153;-47
2022/02/13 02:01:35;;;;;;;33.88;20.20;;;;;;;-4.42;63.21;95958.84;1526539;92;21163;-47
2022/02/13 02:04:02;;;;;;;30.75;18.35;;;;;;;-4.52;63.18;95969.92;1529699;92;21458;-46
2022/02/13 02:06:29;;;;;;;30.68;18.52;;;;;;;-4.62;63.37;95970.30;1494336;92;21203;-47
2022/02/13 02:08:57;;;;;;;35.78;20.23;;;;;;;-4.59;63.62;95962.94;1511616;92;21123;-47
2022/02/13 02:11:24;;;;;;;31.70;19.73;;;;;;;-4.56;63.33;95956.92;1527678;92;21166;-47
2022/02/13 02:13:51;;;;;;;36.50;21.10;;;;;;;-4.56;63.41;95964.98;1528660;92;21091;-47
2022/02/13 02:16:17;;;;;;;46.92;23.62;;;;;;;-4.61;63.54;95957.88;1527832;92;21093;-48
2022/02/13 02:18:44;;;;;;;55.50;27.20;;;;;;;-4.55;63.43;95957.16;1512173;93;21560;-47
2022/02/13 02:21:10;;;;;;;55.70;27.70;;;;;;;-4.67;63.24;95960.52;1526616;92;21100;-47
2022/02/13 02:23:38;;;;;;;58.13;30.37;;;;;;;-4.75;63.63;95949.81;1526904;92;21109;-47
2022/02/13 02:26:04;;;;;;;55.45;28.85;;;;;;;-4.73;63.58;95956.45;1527571;92;21680;-48
2022/02/13 02:28:31;;;;;;;49.13;25.85;;;;;;;-4.76;63.45;95957.06;1529815;92;21052;-47
2022/02/13 02:30:58;;;;;;;61.37;30.43;;;;;;;-4.83;63.41;95957.34;1526708;92;21013;-48
2022/02/13 02:33:24;;;;;;;51.53;26.25;;;;;;;-4.93;63.37;95961.70;1527577;92;21055;-46
2022/02/13 02:35:52;;;;;;;52.10;26.17;;;;;;;-4.98;63.54;95962.66;1528407;92;21179;-47
2022/02/13 02:38:18;;;;;;;50.45;27.95;;;;;;;-5.06;63.25;95952.75;1527416;92;21456;-47
2022/02/13 02:40:46;;;;;;;49.00;28.30;;;;;;;-5.14;63.36;95955.45;1527538;92;21330;-47
2022/02/13 02:43:12;;;;;;;61.33;30.02;;;;;;;-5.14;63.48;95960.81;1527502;92;21101;-46
2022/02/13 02:45:39;;;;;;;66.90;32.35;;;;;;;-5.18;63.40;95959.88;1528782;92;21703;-47
2022/02/13 02:48:06;;;;;;;62.62;29.85;;;;;;;-5.31;63.53;95951.45;1507327;92;21184;-47
2022/02/13 02:50:34;;;;;;;81.70;38.83;;;;;;;-5.34;63.80;95952.09;1510143;93;21232;-47
2022/02/13 02:53:00;;;;;;;83.17;35.83;;;;;;;-5.35;63.84;95956.41;1529222;92;21157;-49
2022/02/13 02:55:27;;;;;;;103.17;47.88;;;;;;;-5.39;63.92;95953.57;1510348;92;21618;-47
2022/02/13 02:57:55;;;;;;;95.55;44.60;;;;;;;-5.47;64.06;95959.73;1529236;92;21131;-47
2022/02/13 03:00:22;;;;;;;95.77;45.25;;;;;;;-5.48;64.36;95959.50;1531344;91;21170;-47
2022/02/13 03:02:49;;;;;;;104.05;46.37;;;;;;;-5.49;64.62;95952.57;1527316;92;21112;-48
2022/02/13 03:05:15;;;;;;;130.35;58.68;;;;;;;-5.43;64.76;95952.63;1528090;92;21046;-48
2022/02/13 03:07:42;;;;;;;113.65;44.90;;;;;;;-5.43;64.46;95958.00;1528549;92;21138;-47
2022/02/13 03:10:09;;;;;;;123.62;51.95;;;;;;;-5.44;64.42;95949.72;1527719;92;21066;-47
2022/02/13 03:12:36;;;;;;;142.75;60.88;;;;;;;-5.51;64.49;95948.08;1531083;92;21132;-48
2022/02/13 03:15:02;;;;;;;138.68;57.43;;;;;;;-5.53;64.27;95952.97;1527405;92;21060;-47
2022/02/13 03:17:30;;;;;;;128.38;54.55;;;;;;;-5.60;64.14;95952.64;1527623;92;21078;-48
2022/02/13 03:19:56;;;;;;;101.12;46.95;;;;;;;-5.63;64.10;95954.62;1528491;92;21108;-47
2022/02/13 03:22:23;;;;;;;93.85;44.27;;;;;;;-5.69;64.00;95941.69;1511183;93;21137;-48
2022/02/13 03:24:50;;;;;;;97.85;45.40;;;;;;;-5.82;64.16;95947.47;1511404;93;21459;-47
2022/02/13 03:27:16;;;;;;;98.82;44.63;;;;;;;-5.99;64.26;95944.78;1513056;93;21502;-48
2022/02/13 03:29:43;;;;;;;106.22;48.87;;;;;;;-6.07;64.92;95946.91;1528521;92;21448;-46
2022/02/13 03:32:09;;;;;;;104.05;49.00;;;;;;;-5.97;65.14;95942.58;1512373;93;21049;-47
2022/02/13 03:34:36;;;;;;;104.83;50.33;;;;;;;-5.84;65.10;95941.65;1528103;92;21043;-47
2022/02/13 03:37:04;;;;;;;103.27;48.98;;;;;;;-5.80;64.91;95931.09;1511722;93;21435;-46
2022/02/13 03:39:30;;;;;;;109.00;49.23;;;;;;;-5.76;64.79;95946.17;1526459;92;21085;-47
2022/02/13 03:41:57;;;;;;;106.20;49.00;;;;;;;-5.70;64.62;95934.22;1528855;92;21068;-46
2022/02/13 03:44:24;;;;;;;100.33;46.80;;;;;;;-5.64;64.60;95930.27;1526563;92;21053;-47
2022/02/13 03:46:51;;;;;;;63.40;32.70;;;;;;;-5.48;64.71;95928.68;1529834;92;22062;-47
2022/02/13 03:49:18;;;;;;;53.30;29.98;;;;;;;-5.33;64.16;95929.53;1526629;92;21197;-48
2022/02/13 03:51:45;;;;;;;47.15;24.60;;;;;;;-5.28;63.73;95926.67;1526513;92;21624;-47
2022/02/13 03:54:11;;;;;;;42.70;21.93;;;;;;;-5.34;63.38;95921.80;1525312;92;21570;-47
2022/02/13 03:56:38;;;;;;;44.35;21.42;;;;;;;-5.40;63.73;95927.87;1511579;93;21146;-47
2022/02/13 03:59:04;;;;;;;36.40;19.75;;;;;;;-5.32;63.63;95927.09;1512188;93;21084;-47
2022/02/13 04:01:31;;;;;;;40.70;23.00;;;;;;;-5.33;62.82;95921.48;1513290;93;21644;-48
2022/02/13 04:03:57;;;;;;;34.88;20.08;;;;;;;-5.45;62.61;95919.23;1512217;92;21065;-47
2022/02/13 04:06:24;;;;;;;41.13;21.35;;;;;;;-5.55;62.62;95917.66;1530828;92;21046;-47
2022/02/13 04:08:51;;;;;;;41.42;21.75;;;;;;;-5.61;62.61;95921.59;1511639;93;21043;-47
2022/02/13 04:11:17;;;;;;;38.25;22.32;;;;;;;-5.72;62.71;95919.02;1528954;92;21088;-47
2022/02/13 04:13:44;;;;;;;39.78;21.37;;;;;;;-5.79;63.03;95914.69;1511449;93;21231;-48
2022/02/13 04:16:11;;;;;;;62.35;29.85;;;;;;;-5.72;63.63;95908.83;1529680;93;21530;-48
2022/02/13 04:18:40;;;;;;;58.38;29.63;;;;;;;-5.53;63.27;95910.63;1529463;92;21053;-48
2022/02/13 04:21:06;;;;;;;80.87;37.45;;;;;;;-5.55;62.83;95906.95;1510615;93;21083;-48
2022/02/13 04:23:33;;;;;;;89.72;40.08;;;;;;;-5.65;62.85;95908.59;1527969;92;21247;-47
2022/02/13 04:26:00;;;;;;;93.42;43.25;;;;;;;-5.81;63.06;95904.84;1527623;92;21983;-47
2022/02/13 04:28:29;;;;;;;70.45;34.35;;;;;;;-5.91;63.17;95907.86;1528727;92;21164;-46
2022/02/13 04:30:56;;;;;;;81.30;37.53;;;;;;;-5.99;63.46;95904.61;1512796;92;21088;-47
2022/02/13 04:33:22;;;;;;;71.45;34.53;;;;;;;-5.99;63.86;95901.93;1511360;92;21093;-47
2022/02/13 04:35:49;;;;;;;73.47;37.23;;;;;;;-5.89;63.84;95898.95;1513449;93;21549;-47
2022/02/13 04:38:16;;;;;;;86.53;44.93;;;;;;;-5.76;63.60;95899.29;1530759;92;21848;-48
2022/02/13 04:40:43;;;;;;;67.50;34.53;;;;;;;-5.70;63.23;95899.38;1527911;92;20994;-47
2022/02/13 04:43:09;;;;;;;79.58;42.88;;;;;;;-5.68;63.15;95885.12;1527528;92;21044;-47
2022/02/13 04:45:36;;;;;;;100.90;46.28;;;;;;;-5.67;63.06;95888.03;1527571;92;21676;-47
2022/02/13 04:48:03;;;;;;;100.15;45.58;;;;;;;-5.76;62.99;95887.80;1514559;93;21092;-46
2022/02/13 04:50:30;;;;;;;106.43;48.78;;;;;;;-5.86;63.08;95883.59;1527633;92;21133;-47
2022/02/13 04:52:57;;;;;;;73.92;33.78;;;;;;;-5.85;63.25;95885.16;1528244;92;21047;-48
2022/02/13 04:55:24;;;;;;;87.80;39.95;;;;;;;-5.92;63.17;95882.17;1511758;92;21609;-48
2022/02/13 04:57:51;;;;;;;90.85;37.50;;;;;;;-5.93;63.34;95883.25;1527627;92;21496;-48
2022/02/13 05:00:18;;;;;;;117.90;47.15;;;;;;;-5.84;63.05;95874.67;1512041;92;21108;-47
2022/02/13 05:02:46;;;;;;;158.30;66.25;;;;;;;-5.86;62.58;95878.23;1526741;92;21169;-46
2022/02/13 05:05:12;;;;;;;153.93;64.65;;;;;;;-6.01;62.39;95876.59;1528731;92;21169;-47
2022/02/13 05:07:39;;;;;;;147.22;65.05;;;;;;;-6.16;62.43;95869.79;1528621;92;21574;-47
2022/02/13 05:10:07;;;;;;;162.22;70.08;;;;;;;-6.32;62.66;95867.33;1511141;92;21088;-47
2022/02/13 05:12:35;;;;;;;219.68;90.97;;;;;;;-6.36;62.95;95870.41;1529238;92;21116;-48
2022/02/13 05:15:03;;;;;;;215.43;90.67;;;;;;;-6.28;63.29;95865.62;1529293;92;21245;-50
2022/02/13 05:17:31;;;;;;;183.70;77.00;;;;;;;-6.22;63.19;95859.01;1528221;92;21101;-49
2022/02/13 05:19:58;;;;;;;174.95;71.72;;;;;;;-6.18;63.26;95857.27;1494438;93;21568;-47
2022/02/13 05:22:25;;;;;;;157.20;71.87;;;;;;;-6.14;63.34;95852.86;1526637;92;21557;-47
2022/02/13 05:24:52;;;;;;;155.55;67.27;;;;;;;-6.14;63.18;95851.52;1528200;92;21085;-49
2022/02/13 05:27:18;;;;;;;122.20;56.50;;;;;;;-6.22;63.26;95846.16;1495159;92;21835;-48
2022/02/13 05:29:45;;;;;;;143.28;60.40;;;;;;;-6.31;63.23;95850.17;1525857;92;21579;-49
2022/02/13 05:32:12;;;;;;;116.80;55.92;;;;;;;-6.24;63.96;95849.70;1528941;92;21040;-48
2022/02/13 05:34:39;;;;;;;124.22;59.18;;;;;;;-6.07;63.45;95834.45;1510912;92;20991;-49
2022/02/13 05:37:06;;;;;;;124.60;56.48;;;;;;;-6.00;63.29;95832.06;1529265;92;21050;-49
2022/02/13 05:39:33;;;;;;;88.55;41.00;;;;;;;-5.90;62.79;95827.73;1528576;92;21130;-50
2022/02/13 05:42:00;;;;;;;118.77;47.55;;;;;;;-5.80;62.67;95834.09;1529791;92;20995;-48
2022/02/13 05:44:26;;;;;;;220.52;83.95;;;;;;;-5.77;62.12;95833.41;1510672;92;21212;-49
2022/02/13 05:46:53;;;;;;;176.95;67.70;;;;;;;-5.91;61.82;95834.20;1526693;92;21144;-50
2022/02/13 05:49:20;;;;;;;149.53;58.02;;;;;;;-5.98;62.13;95841.91;1528578;92;21641;-49
2022/02/13 05:51:46;;;;;;;113.17;49.85;;;;;;;-5.93;62.19;95833.70;1507983;92;22206;-48
2022/02/13 05:54:13;;;;;;;184.63;75.17;;;;;;;-5.87;62.11;95844.51;1512201;93;21034;-47
2022/02/13 05:56:41;;;;;;;114.25;53.60;;;;;;;-5.84;62.04;95837.17;1528459;92;21197;-48
2022/02/13 05:59:08;;;;;;;154.78;64.53;;;;;;;-5.86;61.81;95832.69;1511938;92;21080;-47
2022/02/13 06:01:35;;;;;;;137.95;57.65;;;;;;;-5.92;61.94;95834.50;1527703;92;21427;-47
2022/02/13 06:04:01;;;;;;;159.37;67.35;;;;;;;-5.86;62.02;95831.34;1527552;92;21157;-47
2022/02/13 06:06:28;;;;;;;154.97;65.45;;;;;;;-5.91;61.75;95834.20;1526470;92;21091;-47
2022/02/13 06:08:57;;;;;;;130.27;61.35;;;;;;;-6.00;61.98;95832.06;1511300;92;21550;-47
2022/02/13 06:11:24;;;;;;;108.92;50.20;;;;;;;-6.06;62.15;95840.57;1531506;92;21058;-46
2022/02/13 06:13:51;;;;;;;121.95;55.60;;;;;;;-6.06;62.29;95835.22;1529447;92;21028;-48
2022/02/13 06:16:18;;;;;;;188.72;78.60;;;;;;;-6.08;62.35;95843.58;1528469;92;21298;-48
2022/02/13 06:18:45;;;;;;;186.73;78.17;;;;;;;-6.00;62.42;95839.33;1527389;92;21650;-48
2022/02/13 06:21:11;;;;;;;276.15;106.97;;;;;;;-5.96;62.22;95845.05;1511065;92;21676;-47
2022/02/13 06:23:38;;;;;;;171.22;70.42;;;;;;;-5.97;62.13;95857.44;1531987;92;21887;-49
2022/02/13 06:26:05;;;;;;;158.63;69.15;;;;;;;-5.92;62.64;95850.58;1527485;92;21058;-47
2022/02/13 06:28:32;;;;;;;103.07;52.30;;;;;;;-5.71;62.00;95850.92;1527493;92;21598;-47
2022/02/13 06:30:59;;;;;;;82.20;39.20;;;;;;;-5.77;61.53;95842.80;1526581;92;21127;-50
2022/02/13 06:33:27;;;;;;;117.20;55.08;;;;;;;-5.80;61.61;95844.03;1527655;92;21027;-48
2022/02/13 06:35:54;;;;;;;81.55;41.08;;;;;;;-5.78;61.77;95840.48;1527791;92;21048;-49
2022/02/13 06:38:20;;;;;;;153.47;66.95;;;;;;;-5.73;61.98;95841.08;1528893;92;21480;-49
2022/02/13 06:40:47;;;;;;;351.07;138.82;;;;;;;-5.66;61.88;95828.51;1529481;92;21183;-47
2022/02/13 06:43:15;;;;;;;325.75;124.82;;;;;;;-5.55;62.02;95834.58;1527039;92;21072;-50
2022/02/13 06:45:42;;;;;;;380.18;143.93;;;;;;;-5.46;61.89;95835.90;1524132;92;21014;-47
2022/02/13 06:48:09;;;;;;;161.43;67.35;;;;;;;-5.39;61.99;95834.27;1510587;92;21088;-47
2022/02/13 06:50:36;;;;;;;154.32;72.22;;;;;;;-5.31;61.90;95825.44;1530401;92;21281;-48
2022/02/13 06:53:03;;;;;;;109.22;50.80;;;;;;;-5.30;61.67;95825.67;1528828;92;21157;-48
2022/02/13 06:55:30;;;;;;;107.30;47.45;;;;;;;-5.22;61.83;95823.49;1529636;92;21125;-48
2022/02/13 06:57:57;;;;;;;60.23;32.08;;;;;;;-5.10;61.50;95818.25;1530811;92;21176;-49
2022/02/13 07:00:23;;;;;;;43.28;25.40;;;;;;;-5.07;61.32;95821.63;1527456;92;21043;-47
2022/02/13 07:02:49;;;;;;;77.78;39.18;;;;;;;-5.04;61.33;95816.41;1526594;92;21100;-49
2022/02/13 07:05:19;;;;;;;265.82;105.52;;;;;;;-4.95;61.13;95812.34;1530225;92;21242;-48
2022/02/13 07:07:45;;;;;;;195.20;87.35;;;;;;;-4.97;61.00;95805.19;1527532;92;21057;-48
2022/02/13 07:10:12;;;;;;;156.52;74.65;;;;;;;-5.01;61.24;95813.08;1528518;92;21510;-49
2022/02/13 07:12:40;;;;;;;145.32;65.45;;;;;;;-5.06;61.59;95806.56;1527927;92;21002;-48
2022/02/13 07:15:08;;;;;;;125.92;58.55;;;;;;;-4.94;61.67;95801.84;1526626;92;21249;-49
2022/02/13 07:17:36;;;;;;;192.70;91.10;;;;;;;-4.75;61.58;95798.19;1528676;92;21971;-48
2022/02/13 07:20:07;;;;;;;182.22;89.75;;;;;;;-4.62;61.29;95794.48;1527368;92;21140;-48
2022/02/13 07:22:35;;;;;;;164.88;80.03;;;;;;;-4.49;61.44;95792.89;1530310;92;21058;-49
2022/02/13 07:25:06;;;;;;;108.35;55.33;;;;;;;-4.28;61.22;95791.56;1529922;92;21082;-49
2022/02/13 07:27:35;;;;;;;138.68;67.53;;;;;;;-4.03;60.76;95792.66;1512937;93;20970;-48
2022/02/13 07:30:05;;;;;;;147.37;72.00;;;;;;;-3.85;60.16;95787.36;1531125;93;21838;-50
2022/02/13 07:32:33;;;;;;;109.20;55.65;;;;;;;-3.68;60.11;95778.36;1527591;92;21077;-48
2022/02/13 07:34:59;;;;;;;110.83;55.30;;;;;;;-3.51;59.96;95781.09;1527439;92;21774;-47
2022/02/13 07:37:26;;;;;;;118.25;58.10;;;;;;;-3.37;59.49;95775.41;1512421;92;21268;-49
2022/02/13 07:39:53;;;;;;;97.70;50.05;;;;;;;-3.37;59.59;95766.79;1526680;92;21147;-47
2022/02/13 07:42:19;;;;;;;76.22;41.53;;;;;;;-3.34;59.84;95775.53;1508892;93;21187;-48
2022/02/13 07:44:48;;;;;;;54.60;30.37;;;;;;;-3.28;60.12;95767.45;1529185;92;21051;-47
2022/02/13 07:47:15;;;;;;;28.32;18.92;;;;;;;-3.10;59.87;95765.33;1528467;92;21095;-48
2022/02/13 07:49:42;;;;;;;29.72;18.15;;;;;;;-2.90;59.57;95758.50;1526500;92;21580;-47
2022/02/13 07:52:09;;;;;;;35.68;20.65;;;;;;;-2.69;59.18;95757.03;1511793;92;21079;-48
2022/02/13 07:54:36;;;;;;;52.40;24.30;;;;;;;-2.42;58.99;95749.02;1526473;92;21345;-48
2022/02/13 07:57:04;;;;;;;37.17;20.77;;;;;;;-2.17;58.42;95751.09;1527854;92;21094;-49
2022/02/13 07:59:31;;;;;;;30.92;19.67;;;;;;;-1.96;58.16;95749.75;1529628;92;21056;-48
2022/02/13 08:02:00;;;;;;;30.88;18.00;;;;;;;-1.65;58.17;95744.45;1527601;92;21084;-45
2022/02/13 08:04:27;;;;;;;57.15;29.35;;;;;;;-1.31;57.64;95745.15;1526916;92;21003;-49
2022/02/13 08:06:54;;;;;;;54.53;29.35;;;;;;;-1.13;56.47;95741.74;1528358;92;21176;-48
2022/02/13 08:09:21;;;;;;;61.33;31.55;;;;;;;-0.91;56.62;95732.25;1526783;92;21553;-48
2022/02/13 08:11:47;;;;;;;70.78;36.30;;;;;;;-0.66;55.52;95739.80;1530709;92;21088;-47
2022/02/13 08:14:15;;;;;;;66.67;36.98;;;;;;;-0.71;55.62;95731.17;1488442;93;21246;-48
2022/02/13 08:16:42;;;;;;;60.80;32.60;;;;;;;-0.57;55.32;95728.80;1528138;92;21060;-48
2022/02/13 08:19:09;;;;;;;70.28;37.75;;;;;;;-0.42;55.39;95722.57;1512912;92;21172;-49
2022/02/13 08:21:36;;;;;;;74.03;35.85;;;;;;;-0.22;54.97;95717.40;1523514;92;21141;-48
2022/02/13 08:24:04;;;;;;;50.20;27.02;;;;;;;0.01;53.91;95717.69;1529223;92;21931;-47
2022/02/13 08:26:32;;;;;;;54.40;29.90;;;;;;;0.00;53.37;95710.14;1524937;92;21116;-51
2022/02/13 08:29:00;;;;;;;34.78;21.68;;;;;;;-0.02;53.67;95710.85;1525025;92;21112;-47
2022/02/13 08:31:28;;;;;;;43.92;26.05;;;;;;;-0.09;53.17;95707.43;1511240;92;21886;-47
2022/02/13 08:33:54;;;;;;;37.95;22.07;;;;;;;-0.09;53.64;95699.88;1528504;92;21546;-48
2022/02/13 08:36:21;;;;;;;28.75;18.90;;;;;;;-0.01;53.15;95697.75;1528426;92;21050;-48
2022/02/13 08:38:47;;;;;;;30.10;18.20;;;;;;;0.05;52.80;95696.31;1526575;92;21556;-48
2022/02/13 08:41:14;;;;;;;25.23;16.57;;;;;;;0.01;52.99;95695.47;1527729;92;21054;-49
2022/02/13 08:43:41;;;;;;;25.75;16.40;;;;;;;0.03;52.98;95690.48;1528535;93;21807;-47
2022/02/13 08:46:08;;;;;;;23.98;14.13;;;;;;;0.00;52.74;95687.14;1527535;92;21129;-47
2022/02/13 08:48:35;;;;;;;18.77;13.03;;;;;;;-0.02;52.90;95691.92;1512171;93;21671;-48
2022/02/13 08:51:01;;;;;;;12.88;10.10;;;;;;;-0.04;52.93;95688.80;1512074;93;21043;-48
2022/02/13 08:53:28;;;;;;;21.70;13.78;;;;;;;-0.03;53.03;95683.59;1530512;92;21101;-48
2022/02/13 08:55:55;;;;;;;24.18;14.78;;;;;;;0.06;52.73;95683.00;1529828;92;21869;-48
2022/02/13 08:58:21;;;;;;;15.65;11.93;;;;;;;0.31;52.59;95678.86;1526480;92;21264;-48
2022/02/13 09:00:48;;;;;;;17.40;11.83;;;;;;;0.69;52.07;95685.52;1528535;92;21155;-49
2022/02/13 09:03:15;;;;;;;20.43;13.48;;;;;;;0.97;51.58;95671.66;1507965;93;21108;-49
2022/02/13 09:05:42;;;;;;;20.90;13.78;;;;;;;1.19;51.29;95671.63;1525408;92;21083;-48
2022/02/13 09:08:10;;;;;;;23.30;13.93;;;;;;;1.48;50.91;95665.44;1528523;92;22085;-49
2022/02/13 09:10:38;;;;;;;16.80;11.18;;;;;;;1.79;50.28;95669.16;1522899;92;21081;-50
2022/02/13 09:13:08;;;;;;;18.17;12.15;;;;;;;2.01;49.43;95666.91;1527627;91;21135;-52
2022/02/13 09:15:35;;;;;;;17.57;12.00;;;;;;;2.26;49.16;95666.59;1505424;93;21080;-48
2022/02/13 09:18:02;;;;;;;11.43;9.75;;;;;;;2.60;49.12;95657.25;1523100;92;21215;-50
2022/02/13 09:20:29;;;;;;;16.80;12.10;;;;;;;2.95;47.60;95658.91;1494068;94;21155;-50
2022/02/13 09:22:56;;;;;;;18.02;11.88;;;;;;;3.17;47.74;95655.20;1514196;92;21080;-50
2022/02/13 09:25:23;;;;;;;20.25;12.25;;;;;;;3.67;47.45;95649.11;1514348;92;21100;-48
2022/02/13 09:27:50;;;;;;;14.68;11.60;;;;;;;4.31;46.81;95648.79;1506076;93;21111;-48
2022/02/13 09:30:16;;;;;;;16.82;12.18;;;;;;;4.77;45.66;95647.70;1514343;92;21600;-50
2022/02/13 09:32:43;;;;;;;18.00;12.98;;;;;;;5.06;44.87;95644.41;1506288;93;21901;-49
2022/02/13 09:35:10;;;;;;;17.95;12.45;;;;;;;5.37;44.47;95632.11;1520446;92;21111;-49
2022/02/13 09:37:37;;;;;;;19.90;13.68;;;;;;;5.48;43.92;95631.52;1518341;93;21085;-49
2022/02/13 09:40:06;;;;;;;26.42;15.70;;;;;;;5.59;43.93;95635.02;1505758;94;21097;-47
2022/02/13 09:42:33;;;;;;;22.22;14.80;;;;;;;5.86;43.09;95627.36;1503037;93;21065;-49
2022/02/13 09:45:00;;;;;;;16.42;12.03;;;;;;;6.08;42.37;95624.73;1515482;93;21833;-48
2022/02/13 09:47:27;;;;;;;18.55;12.28;;;;;;;6.17;41.84;95624.31;1515463;93;21077;-48
2022/02/13 09:49:54;;;;;;;15.45;11.83;;;;;;;6.24;41.31;95620.17;1517863;92;21594;-48
2022/02/13 09:52:21;;;;;;;19.67;12.37;;;;;;;6.48;40.49;95611.84;1514701;93;21232;-49
2022/02/13 09:54:48;;;;;;;16.37;11.90;;;;;;;6.68;40.41;95602.55;1503702;93;21132;-48
2022/02/13 10:00:01;;;;;;;14.63;9.95;;;;;;;6.92;39.38;95596.11;1513887;93;21240;-49
2022/02/13 10:02:39;;;;;;;17.05;11.43;;;;;;;7.08;39.37;95592.45;1525753;92;21146;-47
2022/02/13 10:05:09;;;;;;;13.93;10.53;;;;;;;7.26;39.25;95582.70;1526636;92;21603;-48
2022/02/13 10:07:38;;;;;;;18.95;12.47;;;;;;;7.49;40.16;95582.28;1527326;92;21038;-49
2022/02/13 10:10:10;;;;;;;17.27;12.05;;;;;;;7.62;39.14;95577.06;1527318;92;21177;-48
2022/02/13 10:12:42;;;;;;;16.42;11.10;;;;;;;7.76;39.35;95568.70;1529447;92;21088;-49
2022/02/13 10:15:27;;;;;;;19.90;11.33;;;;;;;7.99;39.52;95568.80;1530377;92;21108;-48
2022/02/13 10:18:04;;;;;;;20.48;13.98;;;;;;;8.26;39.44;95569.06;1515137;92;38668;-49
2022/02/13 10:20:34;;;;;;;20.17;14.00;;;;;;;8.89;38.68;95562.66;1526600;92;21052;-48
2022/02/13 10:23:09;;;;;;;19.52;12.55;;;;;;;9.61;37.79;95550.81;1493392;92;21294;-48
2022/02/13 10:25:36;;;;;;;18.73;12.88;;;;;;;10.29;35.88;95546.30;1525018;92;21536;-48
2022/02/13 10:28:15;;;;;;;18.98;12.53;;;;;;;10.87;35.10;95531.80;1528164;92;21076;-47
2022/02/13 10:30:45;;;;;;;17.40;11.50;;;;;;;11.34;34.36;95531.59;1526147;92;21318;-49
2022/02/13 10:33:26;;;;;;;17.20;11.50;;;;;;;11.74;33.89;95519.13;1528798;92;21046;-46
2022/02/13 10:36:11;;;;;;;15.80;11.45;;;;;;;11.98;33.02;95519.06;1528642;92;21181;-48
2022/02/13 10:38:40;;;;;;;18.32;12.13;;;;;;;12.33;32.44;95519.41;1522349;92;21069;-49
2022/02/13 10:41:20;;;;;;;16.02;10.35;;;;;;;12.87;32.27;95517.34;1505778;93;21105;-48
2022/02/13 10:44:06;;;;;;;22.20;14.40;;;;;;;13.31;31.61;95505.25;1515851;93;21184;-49
2022/02/13 10:46:39;;;;;;;21.75;15.20;;;;;;;13.63;30.90;95500.78;1519178;92;21166;-49
2022/02/13 10:49:08;;;;;;;18.00;12.95;;;;;;;14.07;29.96;95490.67;1518594;92;21172;-48
2022/02/13 10:51:35;;;;;;;18.75;11.73;;;;;;;14.55;29.29;95486.67;1513939;92;21096;-48
2022/02/13 10:54:04;;;;;;;30.23;20.10;;;;;;;14.89;28.75;95480.18;1512576;92;21069;-49
2022/02/13 10:56:32;;;;;;;36.28;24.85;;;;;;;15.33;27.38;95475.39;1517443;92;21802;-49
2022/02/13 10:58:59;;;;;;;19.35;13.65;;;;;;;15.68;26.76;95471.11;1521168;92;21182;-49
2022/02/13 11:01:28;;;;;;;19.32;12.93;;;;;;;16.17;26.91;95467.53;1531521;93;21179;-49
2022/02/13 11:03:57;;;;;;;10.10;7.45;;;;;;;16.48;26.76;95459.15;1527261;92;21019;-49
2022/02/13 11:06:25;;;;;;;8.38;6.78;;;;;;;16.73;24.92;95461.52;1527253;92;21587;-50
2022/02/13 11:08:58;;;;;;;7.25;5.75;;;;;;;16.71;24.30;95457.05;1530157;92;21085;-48
2022/02/13 11:11:25;;;;;;;10.43;6.37;;;;;;;16.66;24.22;95450.75;1529034;93;21188;-48
2022/02/13 11:13:55;;;;;;;6.97;5.70;;;;;;;16.77;24.29;95448.22;1528917;92;21727;-52
2022/02/13 11:16:28;;;;;;;7.30;5.70;;;;;;;16.92;23.52;95446.30;1513205;93;21636;-47
2022/02/13 11:19:05;;;;;;;8.50;5.80;;;;;;;16.96;24.03;95446.13;1528035;93;21127;-49
2022/02/13 11:21:32;;;;;;;7.65;5.58;;;;;;;17.14;23.26;95446.82;1471784;93;21304;-49